Time;durP1;ratioP1;P1;durP2;ratioP2;P2;SDS_P1;SDS_P2;PMS_P1;PMS_P2;Temp;Humidity;BMP_temperature;BMP_pressure;BME280_temperature;BME280_humidity;BME280_pressure;Samples;Min_cycle;Max_cycle;Signal;HPM_P1;HPM_P2
2022/03/01 00:00:42;;;;;;;9.50;6.50;;;1.20;89.80;;;;;;6131342;23;20232;-86
2022/03/01 00:03:08;;;;;;;10.20;6.73;;;0.90;87.80;;;;;;6133339;23;20618;-88
2022/03/01 00:05:34;;;;;;;10.10;6.20;;;0.80;89.50;;;;;;6134207;23;20392;-89
2022/03/01 00:07:59;;;;;;;8.93;6.90;;;0.70;88.30;;;;;;6133429;23;20575;-89
2022/03/01 00:10:27;;;;;;;9.53;6.10;;;0.70;88.20;;;;;;6135648;23;20164;-89
2022/03/01 00:12:52;;;;;;;12.80;7.07;;;0.70;88.60;;;;;;6107929;23;20183;-87
2022/03/01 00:15:23;;;;;;;13.70;8.40;;;0.60;89.10;;;;;;6135424;23;20447;-92
2022/03/01 00:17:51;;;;;;;13.57;7.30;;;0.60;89.90;;;;;;6135721;23;20553;-89
2022/03/01 00:20:19;;;;;;;11.90;7.07;;;0.60;90.00;;;;;;6134719;23;20679;-90
2022/03/01 00:22:47;;;;;;;9.53;7.03;;;0.60;90.00;;;;;;6132556;23;21065;-89
2022/03/01 00:25:13;;;;;;;9.67;6.90;;;0.70;90.10;;;;;;6132105;23;20442;-90
2022/03/01 00:27:41;;;;;;;8.40;6.30;;;0.60;90.50;;;;;;6137099;23;20380;-88
2022/03/01 00:30:11;;;;;;;10.97;6.73;;;0.50;90.80;;;;;;6133601;23;20414;-89
2022/03/01 00:32:37;;;;;;;14.73;8.13;;;0.50;91.20;;;;;;6138400;23;20184;-90
2022/03/01 00:35:23;;;;;;;9.40;6.53;;;0.60;91.00;;;;;;6163127;23;20949;-90
2022/03/01 00:37:49;;;;;;;12.67;6.80;;;0.70;90.90;;;;;;6136476;23;20391;-90
2022/03/01 00:40:22;;;;;;;14.57;7.60;;;0.50;91.30;;;;;;6159108;23;20372;-84
2022/03/01 00:42:47;;;;;;;10.07;6.80;;;0.50;91.70;;;;;;6132283;23;20391;-84
2022/03/01 00:45:14;;;;;;;12.07;7.37;;;0.40;91.90;;;;;;6158794;23;20207;-87
2022/03/01 00:47:40;;;;;;;9.27;6.93;;;0.40;92.00;;;;;;6107234;23;20399;-89
2022/03/01 00:50:06;;;;;;;11.53;7.60;;;0.50;92.00;;;;;;6135252;23;20878;-88
2022/03/01 00:52:32;;;;;;;11.20;7.07;;;0.60;92.00;;;;;;6137880;23;20156;-88
2022/03/01 00:54:58;;;;;;;9.73;6.47;;;0.60;92.00;;;;;;6132118;23;20502;-86
2022/03/01 00:57:24;;;;;;;10.77;6.90;;;0.60;91.70;;;;;;6133253;23;20166;-87
2022/03/01 00:59:49;;;;;;;10.90;7.83;;;0.50;92.00;;;;;;6132355;23;20384;-87
2022/03/01 01:02:15;;;;;;;10.77;7.00;;;0.50;92.20;;;;;;6134085;23;20231;-89
2022/03/01 01:04:42;;;;;;;11.63;6.97;;;0.40;92.50;;;;;;6132094;23;20167;-87
2022/03/01 01:07:07;;;;;;;12.00;7.80;;;0.30;93.10;;;;;;6136033;23;20171;-87
2022/03/01 01:09:33;;;;;;;11.93;7.30;;;0.20;93.60;;;;;;6137324;23;20994;-87
2022/03/01 01:11:58;;;;;;;10.10;6.90;;;0.10;94.00;;;;;;6132718;23;20275;-87
2022/03/01 01:14:27;;;;;;;13.27;7.77;;;0.10;94.10;;;;;;6132977;23;20586;-89
2022/03/01 01:16:53;;;;;;;13.30;7.90;;;0.20;93.80;;;;;;6133633;23;20605;-89
2022/03/01 01:19:18;;;;;;;12.27;6.93;;;0.10;94.10;;;;;;6132376;23;20886;-88
2022/03/01 01:24:41;;;;;;;11.80;7.50;;;0.20;93.90;;;;;;6159439;23;20167;-88
2022/03/01 01:27:07;;;;;;;12.57;7.90;;;0.30;93.80;;;;;;6132130;23;20469;-90
2022/03/01 01:29:33;;;;;;;13.37;7.70;;;0.40;93.70;;;;;;6133562;23;20871;-90
2022/03/01 01:31:58;;;;;;;13.57;7.27;;;0.30;93.90;;;;;;6131916;23;20160;-89
2022/03/01 01:34:23;;;;;;;11.23;7.10;;;0.30;94.30;;;;;;6132052;23;20200;-89
2022/03/01 01:36:49;;;;;;;13.60;8.27;;;0.30;94.60;;;;;;6133997;23;20160;-89
2022/03/01 01:39:15;;;;;;;11.13;6.80;;;0.20;94.40;;;;;;6132611;23;20215;-89
2022/03/01 01:41:40;;;;;;;14.73;8.23;;;0.10;94.90;;;;;;6133296;23;20152;-88
2022/03/01 01:44:07;;;;;;;10.80;7.53;;;0.00;95.00;;;;;;6133467;23;20175;-89
2022/03/01 01:46:33;;;;;;;14.30;8.50;;;0.00;95.10;;;;;;6133986;23;20625;-90
2022/03/01 01:48:58;;;;;;;12.93;7.60;;;0.00;95.50;;;;;;6131416;23;20826;-90
2022/03/01 01:51:25;;;;;;;13.73;7.20;;;-0.10;96.00;;;;;;6134182;23;20842;-90
2022/03/01 01:53:51;;;;;;;14.03;8.30;;;-0.20;96.20;;;;;;6133201;23;20195;-89
2022/03/01 01:56:17;;;;;;;14.60;8.80;;;-0.10;96.60;;;;;;6132549;23;20443;-89
2022/03/01 01:58:44;;;;;;;14.73;9.33;;;-0.10;96.30;;;;;;6132144;23;20407;-89
2022/03/01 02:01:10;;;;;;;13.60;8.00;;;-0.10;96.50;;;;;;6133810;23;20160;-89
2022/03/01 02:03:36;;;;;;;12.63;8.27;;;-0.20;96.90;;;;;;6137599;23;20392;-89
2022/03/01 02:06:02;;;;;;;16.67;7.97;;;-0.20;96.90;;;;;;6131826;23;20395;-88
2022/03/01 02:08:31;;;;;;;12.43;8.17;;;-0.30;96.80;;;;;;6139184;23;20148;-89
2022/03/01 02:10:58;;;;;;;9.73;6.97;;;-0.30;97.30;;;;;;6144266;23;20419;-89
2022/03/01 02:13:24;;;;;;;13.50;8.10;;;-0.30;97.20;;;;;;6133110;23;20405;-89
2022/03/01 02:15:50;;;;;;;11.03;6.90;;;-0.30;97.20;;;;;;6133383;23;21002;-89
2022/03/01 02:18:16;;;;;;;15.80;8.00;;;-0.20;96.90;;;;;;6132938;23;20162;-88
2022/03/01 02:20:42;;;;;;;11.20;7.20;;;0.00;96.70;;;;;;6133693;23;21059;-89
2022/03/01 02:23:07;;;;;;;12.37;7.87;;;0.00;96.40;;;;;;6133412;23;20384;-89
2022/03/01 02:25:36;;;;;;;11.10;7.40;;;0.10;96.60;;;;;;6136213;23;20242;-88
2022/03/01 02:28:02;;;;;;;14.53;8.37;;;0.00;97.20;;;;;;6136219;23;20164;-89
2022/03/01 02:30:28;;;;;;;14.30;8.10;;;-0.30;98.30;;;;;;6133564;23;20399;-89
2022/03/01 02:32:53;;;;;;;14.47;8.83;;;-0.50;99.30;;;;;;6133159;23;20399;-89
2022/03/01 02:35:19;;;;;;;12.40;8.43;;;-0.60;99.90;;;;;;6132978;23;20709;-89
2022/03/01 02:37:46;;;;;;;12.40;8.23;;;-0.50;99.90;;;;;;6132927;23;20570;-89
2022/03/01 02:40:12;;;;;;;11.97;8.07;;;-0.60;99.90;;;;;;6135407;23;20739;-89
2022/03/01 02:42:39;;;;;;;11.30;8.10;;;-0.50;99.80;;;;;;6132925;23;20960;-89
2022/03/01 02:45:06;;;;;;;11.97;9.10;;;-0.30;99.00;;;;;;6132885;23;20743;-89
2022/03/01 02:47:34;;;;;;;12.53;8.43;;;-0.10;98.50;;;;;;6134929;23;20475;-88
2022/03/01 02:50:00;;;;;;;13.83;8.40;;;-0.20;98.40;;;;;;6132860;23;20498;-89
2022/03/01 02:52:25;;;;;;;14.43;8.10;;;-0.20;99.10;;;;;;6134016;23;20453;-90
2022/03/01 02:54:51;;;;;;;11.80;7.50;;;-0.20;99.70;;;;;;6134459;23;20192;-88
2022/03/01 02:57:17;;;;;;;12.80;7.80;;;-0.30;99.90;;;;;;6134067;23;20516;-89
2022/03/01 02:59:45;;;;;;;11.73;7.80;;;-0.40;99.90;;;;;;6134402;23;20160;-88
2022/03/01 03:02:12;;;;;;;12.80;6.97;;;-0.40;99.90;;;;;;6131533;23;20402;-89
2022/03/01 03:04:38;;;;;;;12.53;8.47;;;-0.50;99.90;;;;;;6134949;23;20396;-90
2022/03/01 03:07:04;;;;;;;10.10;6.90;;;-0.60;99.90;;;;;;6134726;23;20442;-89
2022/03/01 03:09:30;;;;;;;12.87;7.13;;;-0.60;99.90;;;;;;6136305;23;20400;-90
2022/03/01 03:11:57;;;;;;;13.70;7.33;;;-0.70;99.90;;;;;;6135975;23;20157;-89
2022/03/01 03:14:22;;;;;;;12.13;7.90;;;-0.60;99.90;;;;;;6132865;23;20439;-89
2022/03/01 03:17:00;;;;;;;11.47;7.30;;;-0.70;99.90;;;;;;6136660;23;20877;-89
2022/03/01 03:19:26;;;;;;;12.37;7.07;;;-0.60;99.90;;;;;;6135840;23;20435;-90
2022/03/01 03:21:54;;;;;;;16.23;8.87;;;-0.70;99.90;;;;;;6135216;23;20861;-89
2022/03/01 03:24:20;;;;;;;10.23;7.10;;;-0.80;99.90;;;;;;6134331;23;20495;-89
2022/03/01 03:26:48;;;;;;;11.43;6.83;;;-0.90;99.90;;;;;;6137154;23;20399;-90
2022/03/01 03:29:14;;;;;;;12.90;7.70;;;-0.90;99.90;;;;;;6131510;23;20179;-89
2022/03/01 03:31:41;;;;;;;12.90;7.80;;;-0.90;99.90;;;;;;6133681;23;20781;-90
2022/03/01 03:34:09;;;;;;;12.80;7.97;;;-0.80;99.90;;;;;;6132876;23;20671;-89
2022/03/01 03:36:54;;;;;;;15.30;8.80;;;-0.80;99.90;;;;;;6134413;23;20400;-89
2022/03/01 03:39:23;;;;;;;12.93;7.80;;;-0.80;99.90;;;;;;6131809;23;20380;-88
2022/03/01 03:41:59;;;;;;;12.07;6.70;;;-0.70;99.90;;;;;;6132195;23;20399;-89
2022/03/01 03:44:25;;;;;;;12.83;7.47;;;-0.60;99.90;;;;;;6133717;23;20390;-89
2022/03/01 03:46:51;;;;;;;12.07;7.60;;;-0.50;99.90;;;;;;6132565;23;20478;-88
2022/03/01 03:49:16;;;;;;;15.57;8.30;;;-0.40;99.90;;;;;;6131920;23;20276;-88
2022/03/01 03:51:42;;;;;;;13.47;7.60;;;-0.50;99.70;;;;;;6132521;23;20593;-90
2022/03/01 03:54:10;;;;;;;12.30;6.90;;;-0.70;99.80;;;;;;6134174;23;20535;-89
2022/03/01 03:56:38;;;;;;;9.93;6.97;;;-0.70;99.90;;;;;;6135657;23;20499;-89
2022/03/01 03:59:03;;;;;;;13.53;7.50;;;-0.80;99.90;;;;;;6130387;23;20423;-91
2022/03/01 04:01:31;;;;;;;13.93;7.63;;;-0.80;99.90;;;;;;6134303;23;20395;-89
2022/03/01 04:03:58;;;;;;;11.43;7.50;;;-0.80;99.90;;;;;;6132753;23;20238;-90
2022/03/01 04:06:23;;;;;;;14.37;7.90;;;-0.80;99.90;;;;;;6134950;23;20910;-90
2022/03/01 04:08:52;;;;;;;12.43;8.07;;;-0.80;99.90;;;;;;6136170;23;20439;-90
2022/03/01 04:11:20;;;;;;;12.50;8.10;;;-0.80;99.90;;;;;;6136167;23;20155;-89
2022/03/01 04:13:51;;;;;;;10.27;6.67;;;-0.70;99.70;;;;;;6132340;23;20392;-90
2022/03/01 04:16:18;;;;;;;12.00;7.33;;;-0.60;99.80;;;;;;6134838;23;20443;-90
2022/03/01 04:18:47;;;;;;;15.13;7.63;;;-0.70;99.60;;;;;;6133472;23;20654;-88
2022/03/01 04:21:25;;;;;;;12.57;7.60;;;-0.80;99.80;;;;;;6135245;23;20427;-88
2022/03/01 04:23:51;;;;;;;11.60;7.10;;;-0.80;99.70;;;;;;6132750;23;20770;-90
2022/03/01 04:26:16;;;;;;;10.70;7.20;;;-0.90;99.90;;;;;;6135157;23;20399;-89
2022/03/01 04:28:42;;;;;;;21.10;11.53;;;-0.80;99.90;;;;;;6136603;23;20164;-89
2022/03/01 04:31:11;;;;;;;54.93;22.90;;;-0.70;99.70;;;;;;6128928;23;20211;-89
2022/03/01 04:33:36;;;;;;;16.87;10.13;;;-0.70;99.90;;;;;;6133905;23;20391;-90
2022/03/01 04:36:02;;;;;;;15.80;9.53;;;-0.80;99.90;;;;;;6132810;23;20704;-88
2022/03/01 04:38:29;;;;;;;14.10;8.30;;;-1.00;99.90;;;;;;6134258;23;20163;-88
2022/03/01 04:43:54;;;;;;;11.80;7.90;;;-1.30;99.90;;;;;;6161507;23;20457;-88
2022/03/01 04:46:20;;;;;;;17.27;7.95;;;-1.30;99.90;;;;;;6134883;23;20379;-88
2022/03/01 04:48:46;;;;;;;15.93;8.83;;;-1.30;99.90;;;;;;6132779;23;20161;-88
2022/03/01 04:51:11;;;;;;;11.10;7.40;;;-1.40;99.90;;;;;;6133140;23;20161;-88
2022/03/01 04:53:37;;;;;;;14.10;8.60;;;-1.30;99.90;;;;;;6131549;23;21113;-88
2022/03/01 04:56:03;;;;;;;12.30;7.50;;;-1.20;99.90;;;;;;6134707;23;20192;-89
2022/03/01 04:58:29;;;;;;;11.63;8.17;;;-1.20;99.90;;;;;;6134929;23;20238;-89
2022/03/01 05:00:55;;;;;;;15.03;9.00;;;-1.20;99.90;;;;;;6133119;23;20391;-88
2022/03/01 05:03:23;;;;;;;10.07;6.93;;;-1.30;99.90;;;;;;6133356;23;20235;-88
2022/03/01 05:05:49;;;;;;;14.00;7.87;;;-1.50;99.90;;;;;;6132970;23;20399;-88
2022/03/01 05:08:14;;;;;;;13.00;7.73;;;-1.50;99.90;;;;;;6134925;23;20910;-88
2022/03/01 05:10:40;;;;;;;12.27;8.77;;;-1.60;99.90;;;;;;6132447;23;20192;-88
2022/03/01 05:13:06;;;;;;;11.37;7.53;;;-1.60;99.90;;;;;;6133476;23;20212;-89
2022/03/01 05:15:31;;;;;;;12.17;7.93;;;-1.50;99.90;;;;;;6131801;23;20192;-88
2022/03/01 05:18:01;;;;;;;11.83;7.13;;;-1.50;99.90;;;;;;6132313;23;20156;-88
2022/03/01 05:20:46;;;;;;;15.73;10.60;;;-1.50;99.90;;;;;;6156923;23;20211;-89
2022/03/01 05:23:12;;;;;;;15.37;8.83;;;-1.30;99.90;;;;;;6132507;23;20424;-89
2022/03/01 05:25:38;;;;;;;11.10;7.43;;;-1.30;99.90;;;;;;6131339;23;20387;-89
2022/03/01 05:28:04;;;;;;;12.90;7.70;;;-1.30;99.90;;;;;;6132401;23;20156;-89
2022/03/01 05:30:30;;;;;;;14.80;7.53;;;-1.50;99.90;;;;;;6131756;23;20192;-90
2022/03/01 05:32:56;;;;;;;14.63;7.93;;;-1.70;99.90;;;;;;6135872;23;20602;-89
2022/03/01 05:35:24;;;;;;;13.67;8.10;;;-1.60;99.90;;;;;;6135235;23;20478;-89
2022/03/01 05:37:52;;;;;;;17.08;8.25;;;-1.60;99.90;;;;;;6128285;23;20407;-89
2022/03/01 05:40:19;;;;;;;12.50;7.95;;;-1.50;99.90;;;;;;6128211;23;20161;-89
2022/03/01 05:42:45;;;;;;;12.40;7.85;;;-1.50;99.90;;;;;;6130206;23;20160;-88
2022/03/01 05:45:11;;;;;;;9.82;7.95;;;-1.50;99.90;;;;;;6128888;23;20385;-89
2022/03/01 05:47:38;;;;;;;12.98;8.95;;;-1.60;99.90;;;;;;6132767;23;20223;-92
2022/03/01 05:50:06;;;;;;;15.77;8.23;;;-1.60;99.90;;;;;;6133546;23;20175;-90
2022/03/01 05:53:00;;;;;;;13.90;8.40;;;-1.60;99.90;;;;;;6129889;23;20195;-89
2022/03/01 05:55:46;;;;;;;15.02;7.38;;;-1.70;99.90;;;;;;6141160;23;20191;-91
2022/03/01 05:58:12;;;;;;;11.03;7.70;;;-1.70;99.90;;;;;;6132280;23;20607;-88
2022/03/01 06:00:37;;;;;;;11.90;7.57;;;-1.70;99.90;;;;;;6134426;23;20328;-89
2022/03/01 06:03:03;;;;;;;11.70;7.80;;;-1.70;99.90;;;;;;6130673;23;20160;-87
2022/03/01 06:05:31;;;;;;;16.50;8.80;;;-1.70;99.90;;;;;;6124177;23;20383;-88
2022/03/01 06:07:58;;;;;;;13.60;8.73;;;-1.70;99.90;;;;;;6128714;23;20768;-88
2022/03/01 06:10:26;;;;;;;16.25;9.00;;;-1.90;99.90;;;;;;6131800;23;20517;-88
2022/03/01 06:12:51;;;;;;;15.32;8.57;;;-2.00;99.90;;;;;;6124395;23;20774;-87
2022/03/01 06:15:20;;;;;;;14.10;7.83;;;-1.90;99.90;;;;;;6132253;23;20184;-87
2022/03/01 06:17:46;;;;;;;14.80;7.93;;;-1.90;99.90;;;;;;6129559;23;20157;-88
2022/03/01 06:20:12;;;;;;;15.27;7.90;;;-2.00;99.90;;;;;;6126505;23;20183;-87
2022/03/01 06:22:39;;;;;;;13.85;7.85;;;-1.80;99.90;;;;;;6131999;23;20165;-89
2022/03/01 06:25:06;;;;;;;12.55;7.97;;;-1.80;99.90;;;;;;6128739;23;20666;-87
2022/03/01 06:27:33;;;;;;;12.63;7.53;;;-1.90;99.90;;;;;;6127125;23;20183;-88
2022/03/01 06:29:59;;;;;;;13.35;8.73;;;-1.80;99.90;;;;;;6132698;23;20400;-87
2022/03/01 06:32:24;;;;;;;14.30;7.97;;;-1.70;99.90;;;;;;6131529;23;20273;-87
2022/03/01 06:34:52;;;;;;;13.90;8.67;;;-1.60;99.90;;;;;;6131627;23;20556;-87
2022/03/01 06:37:34;;;;;;;13.67;8.40;;;-1.70;99.90;;;;;;6132258;23;20494;-87
2022/03/01 06:40:15;;;;;;;14.50;7.93;;;-1.70;99.90;;;;;;6131611;23;20395;-88
2022/03/01 06:42:41;;;;;;;12.10;8.27;;;-1.60;99.90;;;;;;6134347;23;20528;-87
2022/03/01 06:45:07;;;;;;;16.07;8.83;;;-1.50;99.90;;;;;;6133737;23;20499;-88
2022/03/01 06:47:33;;;;;;;13.00;8.27;;;-1.50;99.90;;;;;;6134699;23;20522;-88
2022/03/01 06:50:04;;;;;;;16.13;8.87;;;-1.40;99.90;;;;;;6135220;23;20462;-88
2022/03/01 06:52:31;;;;;;;14.77;7.70;;;-1.30;99.90;;;;;;6158753;23;20166;-89
2022/03/01 06:54:56;;;;;;;14.33;8.67;;;-1.20;99.90;;;;;;6133121;23;20755;-89
2022/03/01 06:57:25;;;;;;;14.03;9.20;;;-1.30;99.90;;;;;;6132943;23;20398;-88
2022/03/01 06:59:53;;;;;;;14.20;8.50;;;-1.30;99.90;;;;;;6133562;23;20535;-88
2022/03/01 07:02:22;;;;;;;13.33;8.27;;;-1.30;99.90;;;;;;6134897;23;20415;-89
2022/03/01 07:04:48;;;;;;;15.50;8.67;;;-1.20;99.90;;;;;;6130544;23;20513;-89
2022/03/01 07:07:14;;;;;;;13.90;8.67;;;-1.20;99.90;;;;;;6128035;23;20889;-89
2022/03/01 07:09:39;;;;;;;14.13;8.23;;;-1.20;99.90;;;;;;6130847;23;20934;-88
2022/03/01 07:12:05;;;;;;;10.57;8.07;;;-1.00;99.90;;;;;;6128324;23;20200;-88
2022/03/01 07:14:31;;;;;;;15.20;8.70;;;-0.90;99.90;;;;;;6128113;23;20445;-88
2022/03/01 07:16:56;;;;;;;15.20;8.23;;;-0.80;99.90;;;;;;6131343;23;20415;-89
2022/03/01 07:19:24;;;;;;;13.63;8.77;;;-0.80;99.90;;;;;;6130582;23;20176;-89
2022/03/01 07:21:52;;;;;;;13.30;7.60;;;-0.60;99.90;;;;;;6131626;23;20617;-88
2022/03/01 07:24:28;;;;;;;13.37;8.20;;;-0.50;99.90;;;;;;6159092;23;20364;-87
2022/03/01 07:26:54;;;;;;;13.90;9.30;;;-0.40;99.80;;;;;;6128190;23;20539;-89
2022/03/01 07:29:19;;;;;;;14.40;8.67;;;-0.20;99.40;;;;;;6127427;23;20252;-88
2022/03/01 07:31:45;;;;;;;14.70;8.23;;;-0.10;99.60;;;;;;6129380;23;20514;-88
2022/03/01 07:34:11;;;;;;;12.30;8.77;;;0.00;99.30;;;;;;6131586;23;20487;-88
2022/03/01 07:36:37;;;;;;;13.97;9.17;;;-0.10;99.10;;;;;;6127769;23;20215;-87
2022/03/01 07:39:03;;;;;;;13.80;8.53;;;0.10;99.80;;;;;;6129661;23;20157;-88
2022/03/01 07:41:29;;;;;;;13.20;8.70;;;0.30;99.20;;;;;;6127856;23;20391;-87
2022/03/01 07:43:55;;;;;;;11.73;8.83;;;0.30;99.00;;;;;;6129423;23;20392;-88
2022/03/01 07:46:22;;;;;;;16.03;8.90;;;0.40;98.20;;;;;;6130356;23;20553;-88
2022/03/01 07:48:48;;;;;;;11.27;7.67;;;0.50;98.00;;;;;;6131733;23;20160;-86
2022/03/01 07:51:16;;;;;;;12.47;8.47;;;0.50;97.70;;;;;;6131461;23;20774;-88
2022/03/01 07:53:42;;;;;;;13.00;8.30;;;0.60;97.20;;;;;;6136923;23;20156;-89
2022/03/01 07:56:07;;;;;;;16.80;9.03;;;0.70;96.70;;;;;;6133754;23;20473;-88
2022/03/01 07:58:33;;;;;;;13.93;8.50;;;0.70;96.60;;;;;;6130541;23;20689;-89
2022/03/01 08:00:59;;;;;;;12.93;7.77;;;0.90;96.40;;;;;;6129768;23;20387;-88
2022/03/01 08:03:25;;;;;;;13.10;8.23;;;1.00;95.50;;;;;;6130524;23;20538;-88
2022/03/01 08:05:51;;;;;;;15.23;9.23;;;1.00;96.00;;;;;;6128198;23;20471;-88
2022/03/01 08:08:17;;;;;;;11.90;8.97;;;1.10;95.60;;;;;;6130258;23;20161;-88
2022/03/01 08:10:43;;;;;;;12.67;8.07;;;1.10;95.50;;;;;;6129832;23;20387;-88
2022/03/01 08:13:09;;;;;;;14.00;8.53;;;1.30;95.70;;;;;;6126765;23;20188;-88
2022/03/01 08:15:38;;;;;;;12.67;8.17;;;1.40;95.10;;;;;;6127018;23;20439;-88
2022/03/01 08:18:03;;;;;;;13.97;8.50;;;1.40;94.60;;;;;;6107115;23;20391;-88
2022/03/01 08:20:30;;;;;;;14.30;9.30;;;1.50;94.00;;;;;;6129499;23;20442;-87
2022/03/01 08:22:56;;;;;;;12.37;8.73;;;1.60;94.30;;;;;;6126815;23;20163;-87
2022/03/01 08:25:40;;;;;;;11.83;7.93;;;1.70;94.50;;;;;;6131191;23;20396;-87
2022/03/01 08:28:05;;;;;;;13.30;8.30;;;1.80;93.80;;;;;;6126031;23;20402;-87
2022/03/01 08:30:35;;;;;;;12.70;8.50;;;1.90;93.60;;;;;;6131915;23;20803;-88
2022/03/01 08:33:01;;;;;;;10.83;8.23;;;2.00;93.40;;;;;;6132488;23;20157;-87
2022/03/01 08:35:27;;;;;;;12.20;8.50;;;2.10;93.50;;;;;;6134942;23;20949;-88
2022/03/01 08:37:53;;;;;;;13.60;7.40;;;2.30;93.20;;;;;;6131921;23;20415;-88
2022/03/01 08:40:21;;;;;;;14.27;9.03;;;2.60;93.80;;;;;;6158043;23;20383;-88
2022/03/01 08:42:47;;;;;;;12.10;8.00;;;2.90;93.00;;;;;;6132884;23;20168;-87
2022/03/01 08:45:12;;;;;;;11.47;7.83;;;2.90;92.00;;;;;;6131817;23;20385;-87
2022/03/01 08:47:41;;;;;;;12.03;8.20;;;2.90;92.40;;;;;;6134749;23;20742;-88
2022/03/01 08:50:10;;;;;;;13.70;8.40;;;2.90;92.00;;;;;;6138014;23;20161;-89
2022/03/01 08:52:36;;;;;;;8.90;7.30;;;3.00;91.80;;;;;;6134889;23;20729;-88
2022/03/01 08:55:02;;;;;;;10.63;7.50;;;3.30;91.40;;;;;;6133850;23;20519;-88
2022/03/01 08:57:27;;;;;;;12.60;8.80;;;3.30;90.50;;;;;;6134746;23;20165;-88
2022/03/01 08:59:53;;;;;;;10.20;8.10;;;3.40;91.10;;;;;;6134867;23;20391;-88
2022/03/01 09:02:20;;;;;;;12.50;8.20;;;3.70;90.10;;;;;;6133795;23;20241;-88
2022/03/01 09:04:45;;;;;;;9.50;7.23;;;3.70;88.40;;;;;;6137567;23;20168;-88
2022/03/01 09:07:13;;;;;;;9.80;7.57;;;3.90;90.50;;;;;;6135516;23;20752;-88
2022/03/01 09:09:41;;;;;;;9.80;7.97;;;4.10;88.90;;;;;;6132717;23;20164;-88
2022/03/01 09:12:07;;;;;;;12.20;7.97;;;4.20;89.50;;;;;;6131502;23;20778;-88
2022/03/01 09:14:33;;;;;;;11.03;8.50;;;4.60;88.00;;;;;;6128706;23;20704;-88
2022/03/01 09:16:58;;;;;;;11.37;8.20;;;4.70;88.10;;;;;;6132528;23;20175;-88
2022/03/01 09:19:24;;;;;;;11.67;8.10;;;5.00;87.40;;;;;;6133866;23;20196;-87
2022/03/01 09:21:56;;;;;;;9.40;7.90;;;4.90;85.00;;;;;;6133667;23;20548;-88
2022/03/01 09:24:23;;;;;;;10.20;8.30;;;5.20;83.40;;;;;;6135758;23;20542;-88
2022/03/01 09:26:51;;;;;;;11.27;8.17;;;5.40;86.00;;;;;;6133562;23;20403;-88
2022/03/01 09:29:17;;;;;;;10.30;7.60;;;5.40;83.70;;;;;;6129496;23;20161;-87
2022/03/01 09:31:43;;;;;;;12.37;8.20;;;5.20;83.10;;;;;;6126075;23;20829;-88
2022/03/01 09:34:08;;;;;;;10.67;7.93;;;5.30;82.70;;;;;;6126259;23;20180;-87
2022/03/01 09:36:34;;;;;;;9.30;7.30;;;5.40;83.20;;;;;;6134441;23;20934;-88
2022/03/01 09:38:59;;;;;;;11.47;8.60;;;5.30;83.50;;;;;;6128765;23;20159;-88
2022/03/01 09:41:26;;;;;;;10.30;7.70;;;5.40;84.10;;;;;;6126776;23;20666;-88
2022/03/01 09:43:54;;;;;;;10.60;8.17;;;5.50;81.00;;;;;;6125612;23;20498;-87
2022/03/01 09:46:20;;;;;;;12.63;8.30;;;5.50;84.30;;;;;;6125810;23;20488;-87
2022/03/01 09:48:48;;;;;;;9.17;7.77;;;5.60;81.50;;;;;;6131166;23;20685;-88
2022/03/01 09:51:17;;;;;;;11.23;8.03;;;5.80;81.30;;;;;;6133818;23;20409;-87
2022/03/01 09:53:47;;;;;;;11.33;7.60;;;6.00;80.10;;;;;;6129316;23;20594;-88
2022/03/01 09:56:14;;;;;;;9.57;8.27;;;6.00;79.30;;;;;;6128398;23;20835;-87
2022/03/01 09:58:43;;;;;;;9.20;7.40;;;6.40;77.80;;;;;;6127291;23;20906;-88
2022/03/01 10:01:09;;;;;;;10.23;8.13;;;6.70;77.20;;;;;;6126761;23;20384;-88
2022/03/01 10:03:38;;;;;;;11.80;8.53;;;6.80;78.20;;;;;;6129865;23;20396;-87
2022/03/01 10:06:18;;;;;;;10.17;7.13;;;6.80;75.70;;;;;;6129576;23;20397;-88
2022/03/01 10:08:46;;;;;;;11.23;8.40;;;6.90;75.00;;;;;;6129479;23;20391;-87
2022/03/01 10:11:11;;;;;;;10.00;7.70;;;7.20;75.20;;;;;;6130108;23;20397;-87
2022/03/01 10:13:57;;;;;;;9.80;8.03;;;7.20;75.70;;;;;;6163231;23;20396;-88
2022/03/01 10:16:22;;;;;;;9.57;8.13;;;6.80;73.60;;;;;;6137394;23;20440;-88
2022/03/01 10:18:52;;;;;;;10.90;7.80;;;7.10;77.70;;;;;;6136254;23;20440;-88
2022/03/01 10:21:25;;;;;;;9.80;8.33;;;7.60;73.80;;;;;;6139330;23;20173;-88
2022/03/01 10:24:07;;;;;;;10.90;7.77;;;8.00;70.80;;;;;;6163036;23;20372;-88
2022/03/01 10:26:37;;;;;;;9.80;7.53;;;8.00;68.20;;;;;;6137906;23;20467;-89
2022/03/01 10:29:04;;;;;;;10.40;7.80;;;8.10;71.10;;;;;;6138100;23;20778;-91
2022/03/01 10:31:32;;;;;;;9.50;7.23;;;8.50;69.90;;;;;;6140901;23;20564;-93
2022/03/01 10:34:05;;;;;;;10.03;8.20;;;8.70;69.80;;;;;;6144611;23;20735;-92
2022/03/01 10:36:40;;;;;;;10.53;8.20;;;8.30;70.10;;;;;;6164112;23;20432;-94
2022/03/01 10:39:08;;;;;;;9.50;7.50;;;8.10;68.80;;;;;;6148727;23;20710;-95
2022/03/01 10:41:40;;;;;;;9.57;8.03;;;8.70;66.40;;;;;;6147623;23;20391;-94
2022/03/01 10:44:06;;;;;;;9.47;7.73;;;9.00;68.00;;;;;;6144512;23;20391;-93
2022/03/01 10:46:42;;;;;;;10.27;7.90;;;8.80;66.00;;;;;;6145807;23;20762;-94
2022/03/01 10:49:11;;;;;;;9.57;7.90;;;8.40;67.20;;;;;;6150137;23;20383;-94
2022/03/01 10:51:56;;;;;;;8.43;7.50;;;8.50;64.00;;;;;;6152148;23;20390;-96
2022/03/01 10:54:32;;;;;;;9.67;8.03;;;9.20;63.40;;;;;;6149973;23;20460;-96
2022/03/01 10:57:00;;;;;;;10.47;7.33;;;9.80;63.90;;;;;;6156284;23;20396;-95
2022/03/01 10:59:28;;;;;;;8.87;7.93;;;10.10;59.80;;;;;;6153865;23;20681;-93
2022/03/01 11:01:56;;;;;;;11.53;7.20;;;9.90;59.40;;;;;;6149305;23;20400;-95
2022/03/01 11:04:22;;;;;;;8.83;7.80;;;9.80;58.40;;;;;;6147625;23;20399;-94
2022/03/01 11:06:51;;;;;;;10.57;7.90;;;8.90;56.90;;;;;;6146093;23;20457;-94
2022/03/01 11:09:18;;;;;;;8.50;6.73;;;8.60;59.10;;;;;;6151780;23;20434;-95
2022/03/01 11:11:45;;;;;;;8.93;7.37;;;9.20;59.40;;;;;;6147100;23;20426;-94
2022/03/01 11:14:15;;;;;;;8.93;7.80;;;9.60;60.00;;;;;;6146725;23;20391;-94
2022/03/01 11:17:08;;;;;;;7.80;7.00;;;9.90;59.30;;;;;;6143436;23;20434;-95
2022/03/01 11:20:03;;;;;;;8.83;7.60;;;10.20;56.40;;;;;;6152669;23;20798;-95
2022/03/01 11:22:32;;;;;;;10.07;7.40;;;10.30;55.50;;;;;;6148670;23;20389;-94
2022/03/01 11:25:07;;;;;;;9.00;8.10;;;9.30;55.50;;;;;;6147484;23;20801;-95
2022/03/01 11:27:44;;;;;;;10.73;7.30;;;9.80;56.10;;;;;;6148488;23;20405;-94
2022/03/01 11:30:11;;;;;;;9.57;7.50;;;9.40;54.40;;;;;;6146179;23;20380;-94
2022/03/01 11:32:42;;;;;;;8.20;7.37;;;9.60;56.50;;;;;;6142543;23;20398;-94
2022/03/01 11:35:19;;;;;;;7.97;7.17;;;9.30;54.30;;;;;;6142390;23;20451;-93
2022/03/01 11:37:57;;;;;;;11.83;7.20;;;9.60;56.00;;;;;;6144751;23;20967;-94
2022/03/01 11:40:23;;;;;;;9.47;7.27;;;10.10;54.90;;;;;;6147063;23;20624;-95
2022/03/01 11:42:49;;;;;;;9.23;7.20;;;10.20;52.80;;;;;;6146567;23;20383;-95
2022/03/01 11:45:16;;;;;;;8.27;7.13;;;10.00;52.80;;;;;;6146117;23;20478;-95
2022/03/01 11:47:42;;;;;;;7.63;6.93;;;9.90;53.60;;;;;;6140478;23;20391;-95
2022/03/01 11:50:15;;;;;;;10.57;7.67;;;10.60;55.80;;;;;;6141674;23;20938;-95
2022/03/01 11:53:06;;;;;;;8.83;8.00;;;11.00;52.10;;;;;;6144423;23;20243;-95
2022/03/01 11:55:42;;;;;;;11.13;7.40;;;10.90;51.00;;;;;;6150739;23;20515;-94
2022/03/01 11:58:09;;;;;;;8.83;7.80;;;11.60;54.30;;;;;;6146049;23;20380;-94
2022/03/01 12:00:39;;;;;;;9.60;8.60;;;11.50;51.90;;;;;;6148450;23;20402;-95
2022/03/01 12:03:08;;;;;;;10.20;8.07;;;11.10;51.60;;;;;;6145343;23;20407;-95
2022/03/01 12:05:36;;;;;;;10.23;8.27;;;11.20;53.10;;;;;;6161307;23;20390;-95
2022/03/01 12:08:06;;;;;;;12.37;8.60;;;11.00;51.10;;;;;;6140366;23;20384;-95
2022/03/01 12:10:32;;;;;;;8.30;7.40;;;11.70;52.00;;;;;;6140214;23;20384;-95
2022/03/01 12:12:57;;;;;;;9.70;7.40;;;10.90;51.50;;;;;;6138012;23;20497;-94
2022/03/01 12:15:53;;;;;;;7.97;6.60;;;11.20;50.50;;;;;;6140249;23;20184;-95
2022/03/01 12:18:29;;;;;;;8.47;6.60;;;10.90;50.30;;;;;;6143283;23;20157;-95
2022/03/01 12:21:42;;;;;;;8.77;7.40;;;10.20;52.10;;;;;;6138385;23;20437;-94
2022/03/01 12:24:05;;;;;;;8.80;7.33;;;11.40;52.50;;;;;;6162184;23;20391;-95
2022/03/01 12:26:31;;;;;;;9.40;7.73;;;11.20;48.60;;;;;;6140958;23;20388;-94
2022/03/01 12:28:59;;;;;;;8.43;7.53;;;10.70;49.90;;;;;;6139246;23;20391;-95
2022/03/01 12:31:28;;;;;;;9.47;7.70;;;10.70;49.60;;;;;;6139345;23;20168;-95
2022/03/01 12:34:08;;;;;;;8.90;7.10;;;11.20;52.90;;;;;;6168535;23;20889;-96
2022/03/01 12:36:38;;;;;;;8.50;7.40;;;11.20;50.60;;;;;;6143542;23;20434;-95
2022/03/01 12:39:10;;;;;;;11.33;7.63;;;11.30;47.70;;;;;;6141553;23;20388;-93
2022/03/01 12:41:36;;;;;;;9.27;7.50;;;10.30;48.30;;;;;;6143557;23;20409;-96
2022/03/01 12:44:05;;;;;;;11.40;7.70;;;10.40;49.00;;;;;;6142687;23;20383;-95
2022/03/01 12:46:32;;;;;;;8.30;7.50;;;11.20;51.60;;;;;;6151574;23;20395;-94
2022/03/01 12:48:59;;;;;;;9.40;8.40;;;11.30;48.10;;;;;;6149731;23;20384;-95
2022/03/01 12:51:25;;;;;;;11.70;7.80;;;10.90;49.20;;;;;;6142089;23;20791;-94
2022/03/01 12:54:01;;;;;;;9.67;8.23;;;11.20;47.60;;;;;;6143060;23;20463;-95